createdAt,value
2018-05-03T00:01:18.130Z,10.63
2018-05-03T00:03:46.382Z,10.60
2018-05-03T00:06:14.667Z,10.58
2018-05-03T00:08:42.922Z,10.58
2018-05-03T00:11:11.214Z,10.48
2018-05-03T00:13:39.473Z,10.49
2018-05-03T00:16:08.503Z,10.42
2018-05-03T00:18:36.814Z,10.41
2018-05-03T00:21:05.138Z,10.42
2018-05-03T00:23:33.394Z,10.41
2018-05-03T00:26:01.699Z,10.40
2018-05-03T00:28:29.963Z,10.40
2018-05-03T00:30:58.230Z,10.34
2018-05-03T00:33:26.498Z,10.25
2018-05-03T00:35:54.899Z,10.20
2018-05-03T00:38:23.160Z,10.06
2018-05-03T00:40:51.438Z,10.07
2018-05-03T00:43:19.724Z,10.07
2018-05-03T00:45:47.978Z,9.98
2018-05-03T00:48:17.022Z,9.92
2018-05-03T00:50:45.300Z,9.85
2018-05-03T00:53:13.547Z,9.91
2018-05-03T00:55:41.829Z,9.85
2018-05-03T00:58:10.079Z,9.94
2018-05-03T01:00:39.170Z,9.88
2018-05-03T01:03:08.286Z,9.90
2018-05-03T01:05:36.540Z,9.79
2018-05-03T01:08:05.587Z,9.80
2018-05-03T01:10:33.931Z,9.80
2018-05-03T01:13:02.180Z,9.81
2018-05-03T01:15:31.315Z,9.82
2018-05-03T01:17:59.560Z,9.81
2018-05-03T01:20:28.595Z,9.75
2018-05-03T01:22:56.968Z,9.78
2018-05-03T01:25:25.226Z,9.77
2018-05-03T01:27:53.491Z,9.81
2018-05-03T01:30:22.612Z,9.70
2018-05-03T01:32:50.879Z,9.71
2018-05-03T01:38:30.881Z,9.64
2018-05-03T01:40:59.239Z,9.63
2018-05-03T01:43:27.502Z,9.63
2018-05-03T01:45:55.787Z,9.65
2018-05-03T01:48:24.043Z,9.68
2018-05-03T01:50:52.310Z,9.65
2018-05-03T01:53:21.364Z,9.59
2018-05-03T01:55:49.704Z,9.50
2018-05-03T01:58:17.996Z,9.39
2018-05-03T02:00:46.274Z,9.29
2018-05-03T02:03:14.540Z,9.31
2018-05-03T02:05:42.799Z,9.27
2018-05-03T02:08:11.098Z,9.26
2018-05-03T02:10:39.363Z,9.16
2018-05-03T02:13:07.612Z,9.15
2018-05-03T02:15:36.653Z,8.74
2018-05-03T02:18:04.907Z,8.73
2018-05-03T02:20:33.231Z,8.69
2018-05-03T02:23:02.279Z,8.67
2018-05-03T02:25:30.549Z,8.69
2018-05-03T02:27:58.794Z,8.76
2018-05-03T02:30:27.072Z,8.74
2018-05-03T02:32:55.395Z,8.59
2018-05-03T02:35:23.679Z,8.68
2018-05-03T02:37:52.008Z,8.73
2018-05-03T02:40:20.209Z,8.81
2018-05-03T02:42:48.503Z,8.81
2018-05-03T02:45:16.772Z,8.84
2018-05-03T02:47:45.044Z,8.75
2018-05-03T02:50:13.326Z,8.76
2018-05-03T02:52:41.596Z,8.71
2018-05-03T02:55:09.866Z,8.59
2018-05-03T02:58:01.558Z,8.60
2018-05-03T03:00:53.278Z,8.47
2018-05-03T03:03:44.766Z,8.38
2018-05-03T03:06:36.539Z,8.33
2018-05-03T03:09:28.396Z,8.18
2018-05-03T03:15:42.810Z,8.15
2018-05-03T03:18:34.487Z,8.09
2018-05-03T03:25:01.799Z,7.86
2018-05-03T03:27:53.570Z,7.62
2018-05-03T03:30:46.024Z,7.43
2018-05-03T03:33:32.983Z,7.55
2018-05-03T03:36:19.047Z,7.32
2018-05-03T03:39:05.251Z,7.52
2018-05-03T03:41:38.967Z,7.51
2018-05-03T03:44:25.239Z,7.54
2018-05-03T03:46:54.261Z,7.65
2018-05-03T03:49:22.515Z,7.64
2018-05-03T03:51:50.797Z,7.56
2018-05-03T03:54:19.045Z,7.64
2018-05-03T03:56:48.281Z,7.72
2018-05-03T03:59:17.396Z,7.67
2018-05-03T04:01:45.657Z,7.75
2018-05-03T04:04:13.928Z,7.73
2018-05-03T04:06:42.187Z,7.70
2018-05-03T04:09:11.206Z,7.66
2018-05-03T04:11:39.478Z,7.63
2018-05-03T04:14:07.727Z,7.60
2018-05-03T04:16:36.906Z,7.55
2018-05-03T04:19:22.935Z,7.54
2018-05-03T04:22:08.964Z,7.41
2018-05-03T04:27:53.832Z,7.55
2018-05-03T04:30:23.019Z,7.58
2018-05-03T04:32:51.288Z,7.69
2018-05-03T04:35:19.530Z,7.58
2018-05-03T04:37:47.787Z,7.61
2018-05-03T04:40:16.117Z,7.86
2018-05-03T04:42:44.367Z,8.10
2018-05-03T04:45:13.422Z,8.27
2018-05-03T04:47:41.686Z,8.22
2018-05-03T04:50:09.935Z,8.40
2018-05-03T04:52:38.203Z,8.57
2018-05-03T04:55:06.482Z,8.71
2018-05-03T04:57:34.812Z,8.92
2018-05-03T05:00:03.092Z,8.97
2018-05-03T05:02:31.387Z,9.09
2018-05-03T05:04:59.734Z,9.29
2018-05-03T05:07:28.017Z,9.52
2018-05-03T05:09:56.359Z,9.65
2018-05-03T05:12:24.619Z,9.79
2018-05-03T05:14:52.924Z,9.93
2018-05-03T05:17:21.181Z,10.10
2018-05-03T05:19:49.443Z,10.23
2018-05-03T05:22:18.487Z,10.38
2018-05-03T05:24:46.841Z,10.54
2018-05-03T05:27:15.119Z,10.68
2018-05-03T05:29:43.406Z,10.91
2018-05-03T05:32:11.779Z,11.14
2018-05-03T05:34:40.066Z,11.33
2018-05-03T05:37:08.336Z,11.49
2018-05-03T05:39:36.611Z,11.36
2018-05-03T05:42:04.940Z,11.39
2018-05-03T05:44:33.973Z,11.52
2018-05-03T05:47:02.251Z,11.51
2018-05-03T05:49:30.513Z,11.38
2018-05-03T05:51:58.866Z,11.48
2018-05-03T05:54:27.895Z,11.78
2018-05-03T05:56:56.167Z,11.96
2018-05-03T05:59:24.443Z,12.15
2018-05-03T06:01:52.823Z,12.38
2018-05-03T06:04:21.116Z,12.60
2018-05-03T06:06:49.290Z,12.98
2018-05-03T06:09:17.563Z,12.92
2018-05-03T06:11:45.832Z,13.23
2018-05-03T06:14:14.088Z,13.30
2018-05-03T06:16:42.438Z,13.46
2018-05-03T06:19:10.723Z,13.22
2018-05-03T06:21:39.767Z,13.14
2018-05-03T06:24:08.027Z,12.94
2018-05-03T06:26:36.295Z,13.00
2018-05-03T06:29:04.571Z,12.93
2018-05-03T06:31:32.883Z,13.17
2018-05-03T06:34:01.235Z,13.15
2018-05-03T06:36:29.491Z,12.96
2018-05-03T06:38:58.643Z,13.31
2018-05-03T06:41:26.819Z,13.33
2018-05-03T06:43:55.158Z,13.58
2018-05-03T06:46:23.438Z,13.59
2018-05-03T06:48:51.702Z,13.37
2018-05-03T06:51:19.975Z,13.57
2018-05-03T06:53:48.265Z,13.46
2018-05-03T06:56:16.537Z,12.98
2018-05-03T06:58:44.815Z,12.79
2018-05-03T07:01:13.209Z,12.94
2018-05-03T07:03:41.473Z,12.91
2018-05-03T07:06:09.730Z,13.01
2018-05-03T07:08:38.029Z,12.95
2018-05-03T07:11:06.294Z,12.74
2018-05-03T07:13:34.595Z,12.76
2018-05-03T07:16:02.879Z,12.74
2018-05-03T07:18:31.154Z,12.98
2018-05-03T07:20:59.440Z,13.03
2018-05-03T07:23:27.725Z,13.09
2018-05-03T07:25:56.001Z,13.11
2018-05-03T07:28:24.278Z,13.06
2018-05-03T07:30:52.535Z,12.78
2018-05-03T07:33:20.803Z,12.98
2018-05-03T07:35:49.187Z,13.20
2018-05-03T07:38:17.468Z,13.24
2018-05-03T07:40:45.772Z,13.71
2018-05-03T07:43:14.011Z,13.73
2018-05-03T07:45:42.322Z,13.72
2018-05-03T07:48:10.590Z,13.23
2018-05-03T07:50:38.872Z,13.15
2018-05-03T07:53:07.135Z,13.16
2018-05-03T07:55:35.396Z,13.12
2018-05-03T07:58:03.676Z,13.49
2018-05-03T08:00:31.934Z,13.84
2018-05-03T08:03:00.219Z,14.11
2018-05-03T08:05:30.037Z,14.40
2018-05-03T08:07:58.315Z,14.47
2018-05-03T08:10:26.572Z,14.50
2018-05-03T08:12:54.853Z,14.21
2018-05-03T08:15:23.129Z,14.63
2018-05-03T08:17:51.424Z,14.88
2018-05-03T08:20:19.692Z,14.78
2018-05-03T08:22:47.970Z,15.00
2018-05-03T08:25:16.235Z,14.75
2018-05-03T08:27:44.503Z,14.82
2018-05-03T08:30:12.782Z,14.14
2018-05-03T08:32:41.046Z,13.98
2018-05-03T08:35:09.322Z,13.97
2018-05-03T08:37:37.586Z,14.32
2018-05-03T08:40:06.710Z,14.59
2018-05-03T08:42:34.981Z,14.67
2018-05-03T08:45:03.296Z,14.79
2018-05-03T08:47:31.741Z,15.29
2018-05-03T08:50:00.011Z,15.40
2018-05-03T08:52:28.280Z,15.56
2018-05-03T08:54:56.671Z,15.75
2018-05-03T08:57:24.939Z,15.53
2018-05-03T08:59:53.230Z,15.46
2018-05-03T09:02:21.512Z,15.27
2018-05-03T09:04:49.798Z,15.08
2018-05-03T09:07:18.164Z,14.98
2018-05-03T09:09:46.416Z,15.03
2018-05-03T09:12:14.713Z,14.85
2018-05-03T09:14:42.966Z,15.06
2018-05-03T09:17:11.253Z,15.35
2018-05-03T09:19:39.514Z,15.52
2018-05-03T09:22:08.575Z,15.65
2018-05-03T09:24:36.872Z,15.12
2018-05-03T09:27:05.913Z,15.14
2018-05-03T09:29:34.279Z,15.19
2018-05-03T09:32:02.542Z,15.25
2018-05-03T09:34:30.814Z,15.10
2018-05-03T09:36:59.090Z,15.26
2018-05-03T09:39:27.392Z,15.67
2018-05-03T09:41:55.666Z,15.93
2018-05-03T09:44:23.968Z,15.67
2018-05-03T09:46:52.233Z,15.43
2018-05-03T09:49:20.516Z,15.62
2018-05-03T09:51:48.779Z,15.39
2018-05-03T09:54:17.042Z,15.08
2018-05-03T09:56:45.315Z,15.31
2018-05-03T09:59:13.584Z,15.75
2018-05-03T10:01:41.864Z,15.62
2018-05-03T10:04:10.125Z,15.38
2018-05-03T10:06:39.170Z,15.41
2018-05-03T10:09:07.433Z,15.52
2018-05-03T10:11:36.543Z,15.57
2018-05-03T10:14:04.816Z,16.26
2018-05-03T10:16:33.171Z,16.88
2018-05-03T10:19:01.472Z,17.47
2018-05-03T10:21:29.727Z,17.74
2018-05-03T10:23:57.979Z,18.07
2018-05-03T10:26:26.267Z,18.55
2018-05-03T10:28:54.530Z,18.52
2018-05-03T10:31:23.571Z,17.82
2018-05-03T10:33:51.839Z,18.48
2018-05-03T10:36:20.189Z,18.67
2018-05-03T10:38:48.407Z,18.29
2018-05-03T10:41:16.680Z,17.44
2018-05-03T10:43:44.951Z,17.58
2018-05-03T10:46:13.215Z,17.74
2018-05-03T10:48:41.595Z,17.67
2018-05-03T10:51:09.787Z,18.27
2018-05-03T10:53:38.052Z,18.47
2018-05-03T10:56:06.335Z,18.54
2018-05-03T10:58:34.641Z,18.28
2018-05-03T11:01:02.977Z,18.00
2018-05-03T11:03:31.240Z,18.85
2018-05-03T11:05:59.519Z,19.08
2018-05-03T11:08:27.787Z,19.02
2018-05-03T11:10:56.063Z,18.88
2018-05-03T11:13:24.335Z,18.73
2018-05-03T11:15:52.603Z,19.03
2018-05-03T11:18:20.898Z,18.87
2018-05-03T11:20:49.175Z,18.73
2018-05-03T11:23:17.443Z,18.08
2018-05-03T11:25:45.727Z,17.82
2018-05-03T11:28:14.585Z,17.97
2018-05-03T11:30:43.634Z,18.30
2018-05-03T11:33:11.898Z,19.27
2018-05-03T11:35:40.162Z,20.11
2018-05-03T11:38:08.449Z,20.05
2018-05-03T11:40:36.715Z,20.19
2018-05-03T11:43:05.055Z,20.78
2018-05-03T11:45:35.111Z,20.72
2018-05-03T11:48:03.376Z,20.25
2018-05-03T11:50:31.679Z,18.93
2018-05-03T11:52:59.939Z,20.01
2018-05-03T11:55:28.221Z,20.13
2018-05-03T11:57:56.494Z,20.16
2018-05-03T12:00:24.770Z,19.38
2018-05-03T12:02:53.074Z,19.45
2018-05-03T12:05:21.415Z,19.78
2018-05-03T12:07:49.706Z,20.45
2018-05-03T12:10:17.972Z,21.01
2018-05-03T12:12:46.252Z,21.01
2018-05-03T12:15:14.503Z,20.73
2018-05-03T12:17:42.783Z,20.49
2018-05-03T12:20:11.075Z,19.96
2018-05-03T12:22:39.338Z,19.98
2018-05-03T12:25:07.629Z,20.36
2018-05-03T12:27:35.894Z,20.57
2018-05-03T12:30:04.165Z,21.22
2018-05-03T12:32:32.451Z,21.61
2018-05-03T12:35:00.757Z,21.68
2018-05-03T12:37:29.016Z,21.72
2018-05-03T12:39:57.314Z,21.66
2018-05-03T12:42:25.590Z,22.02
2018-05-03T12:44:53.856Z,22.03
2018-05-03T12:47:22.130Z,22.12
2018-05-03T12:49:50.440Z,21.99
2018-05-03T12:52:18.710Z,22.12
2018-05-03T12:54:46.978Z,21.61
2018-05-03T12:57:15.250Z,21.90
2018-05-03T12:59:43.527Z,21.51
2018-05-03T13:02:11.855Z,21.35
2018-05-03T13:04:40.903Z,21.03
2018-05-03T13:07:09.188Z,21.20
2018-05-03T13:09:37.521Z,21.42
2018-05-03T13:12:05.904Z,21.28
2018-05-03T13:14:34.198Z,22.24
2018-05-03T13:17:02.493Z,22.19
2018-05-03T13:19:30.838Z,21.94
2018-05-03T13:21:59.120Z,22.12
2018-05-03T13:24:27.383Z,22.28
2018-05-03T13:26:55.650Z,22.53
2018-05-03T13:29:23.985Z,23.38
2018-05-03T13:31:52.316Z,25.03
2018-05-03T13:34:20.601Z,26.07
2018-05-03T13:36:48.995Z,27.25
2018-05-03T13:39:17.350Z,26.60
2018-05-03T13:41:45.730Z,27.24
2018-05-03T13:44:14.008Z,28.02
2018-05-03T13:46:42.289Z,28.29
2018-05-03T13:49:10.596Z,25.71
2018-05-03T13:51:38.858Z,27.52
2018-05-03T13:54:07.132Z,27.50
2018-05-03T13:56:35.398Z,24.67
2018-05-03T13:59:03.683Z,26.26
2018-05-03T14:01:32.039Z,27.70
2018-05-03T14:04:00.334Z,28.23
2018-05-03T14:06:28.629Z,28.92
2018-05-03T14:08:56.968Z,28.21
2018-05-03T14:11:25.238Z,29.24
2018-05-03T14:13:53.526Z,28.34
2018-05-03T14:16:21.830Z,28.40
2018-05-03T14:18:50.086Z,27.95
2018-05-03T14:21:18.390Z,25.23
2018-05-03T14:23:46.659Z,26.07
2018-05-03T14:26:14.931Z,26.94
2018-05-03T14:28:43.297Z,27.05
2018-05-03T14:31:11.563Z,27.38
2018-05-03T14:33:39.849Z,27.83
2018-05-03T14:36:08.115Z,27.74
2018-05-03T14:38:36.494Z,27.89
2018-05-03T14:41:04.750Z,27.65
2018-05-03T14:43:33.048Z,27.75
2018-05-03T14:46:01.351Z,27.70
2018-05-03T14:48:29.614Z,27.87
2018-05-03T14:50:57.978Z,26.45
2018-05-03T14:53:26.240Z,27.12
2018-05-03T14:55:54.519Z,28.08
2018-05-03T14:58:23.591Z,27.38
2018-05-03T15:00:52.738Z,25.37
2018-05-03T15:03:21.004Z,26.04
2018-05-03T15:05:49.269Z,27.21
2018-05-03T15:08:17.545Z,26.81
2018-05-03T15:10:45.817Z,27.35
2018-05-03T15:13:14.084Z,27.14
2018-05-03T15:15:42.356Z,27.60
2018-05-03T15:18:11.480Z,27.20
2018-05-03T15:20:40.465Z,26.70
2018-05-03T15:23:08.732Z,26.95
2018-05-03T15:25:37.011Z,27.41
2018-05-03T15:28:05.307Z,27.50
2018-05-03T15:30:33.623Z,27.04
2018-05-03T15:33:01.889Z,26.45
2018-05-03T15:35:30.162Z,26.14
2018-05-03T15:37:58.448Z,26.61
2018-05-03T15:40:29.854Z,26.92
2018-05-03T15:42:58.134Z,27.40
2018-05-03T15:45:26.408Z,27.05
2018-05-03T15:47:54.675Z,26.39
2018-05-03T15:50:22.957Z,25.54
2018-05-03T15:52:51.231Z,26.27
2018-05-03T15:55:19.524Z,26.46
2018-05-03T15:57:47.887Z,26.95
2018-05-03T16:00:16.171Z,27.69
2018-05-03T16:02:44.451Z,28.32
2018-05-03T16:05:12.723Z,27.96
2018-05-03T16:07:41.168Z,28.56
2018-05-03T16:10:09.384Z,28.10
2018-05-03T16:12:37.662Z,26.87
2018-05-03T16:15:05.921Z,25.92
2018-05-03T16:17:34.205Z,25.88
2018-05-03T16:20:02.518Z,25.38
2018-05-03T16:22:30.776Z,24.65
2018-05-03T16:24:59.135Z,24.86
2018-05-03T16:27:27.435Z,26.07
2018-05-03T16:29:55.683Z,26.53
2018-05-03T16:32:23.962Z,26.88
2018-05-03T16:34:52.234Z,26.42
2018-05-03T16:37:20.532Z,26.11
2018-05-03T16:39:48.892Z,25.32
2018-05-03T16:42:17.291Z,25.23
2018-05-03T16:44:45.649Z,24.93
2018-05-03T16:47:13.927Z,23.86
2018-05-03T16:49:42.183Z,23.67
2018-05-03T16:52:10.464Z,23.92
2018-05-03T16:54:38.788Z,24.54
2018-05-03T16:57:07.793Z,24.91
2018-05-03T16:59:36.048Z,24.61
2018-05-03T17:02:04.401Z,24.66
2018-05-03T17:04:32.823Z,23.89
2018-05-03T17:07:01.135Z,24.13
2018-05-03T17:09:29.432Z,24.58
2018-05-03T17:11:57.696Z,24.65
2018-05-03T17:14:25.980Z,24.78
2018-05-03T17:16:54.265Z,24.43
2018-05-03T17:19:22.551Z,23.19
2018-05-03T17:21:50.819Z,22.29
2018-05-03T17:24:19.080Z,21.21
2018-05-03T17:26:47.390Z,20.61
2018-05-03T17:29:15.646Z,20.45
2018-05-03T17:31:43.919Z,20.25
2018-05-03T17:34:12.188Z,20.14
2018-05-03T17:36:40.474Z,19.98
2018-05-03T17:39:08.838Z,20.23
2018-05-03T17:41:37.036Z,20.52
2018-05-03T17:44:05.319Z,20.47
2018-05-03T17:46:33.587Z,20.07
2018-05-03T17:49:01.931Z,19.88
2018-05-03T17:51:30.957Z,19.51
2018-05-03T17:53:59.222Z,18.53
2018-05-03T17:56:27.504Z,18.31
2018-05-03T17:58:55.766Z,17.98
2018-05-03T18:01:24.040Z,17.49
2018-05-03T18:03:52.295Z,17.18
2018-05-03T18:06:21.328Z,17.10
2018-05-03T18:08:49.603Z,16.72
2018-05-03T18:11:17.872Z,16.35
2018-05-03T18:13:46.171Z,15.91
2018-05-03T18:16:14.538Z,15.75
2018-05-03T18:18:43.535Z,15.85
2018-05-03T18:21:11.819Z,15.58
2018-05-03T18:23:40.079Z,15.41
2018-05-03T18:26:08.445Z,15.24
2018-05-03T18:28:36.631Z,15.09
2018-05-03T18:31:05.135Z,15.17
2018-05-03T18:33:33.579Z,15.09
2018-05-03T18:36:02.611Z,14.89
2018-05-03T18:38:31.744Z,14.78
2018-05-03T18:41:00.961Z,14.50
2018-05-03T18:43:30.404Z,14.25
2018-05-03T18:46:00.195Z,14.16
2018-05-03T18:48:31.080Z,14.15
2018-05-03T18:51:01.006Z,14.02
2018-05-03T18:53:30.865Z,13.77
2018-05-03T18:56:01.341Z,13.73
2018-05-03T18:58:30.669Z,13.70
2018-05-03T19:00:59.895Z,13.60
2018-05-03T19:03:30.018Z,13.52
2018-05-03T19:05:59.388Z,13.47
2018-05-03T19:08:28.586Z,13.31
2018-05-03T19:10:57.860Z,13.25
2018-05-03T19:13:27.211Z,13.16
2018-05-03T19:15:57.325Z,13.02
2018-05-03T19:18:26.609Z,12.92
2018-05-03T19:20:56.217Z,12.82
2018-05-03T19:23:25.494Z,12.86
2018-05-03T19:25:54.844Z,12.63
2018-05-03T19:28:24.900Z,12.68
2018-05-03T19:30:54.284Z,12.72
2018-05-03T19:33:23.695Z,12.65
2018-05-03T19:35:53.120Z,12.62
2018-05-03T19:38:22.562Z,12.64
2018-05-03T19:40:52.896Z,12.65
2018-05-03T19:43:22.272Z,12.61
2018-05-03T19:45:51.661Z,12.61
2018-05-03T19:48:21.065Z,12.48
2018-05-03T19:50:50.371Z,12.55
2018-05-03T19:53:19.765Z,12.50
2018-05-03T19:55:49.101Z,12.56
2018-05-03T19:58:19.431Z,12.39
2018-05-03T20:00:50.127Z,12.41
2018-05-03T20:03:19.806Z,12.22
2018-05-03T20:05:49.124Z,12.17
2018-05-03T20:08:18.399Z,12.12
2018-05-03T20:10:48.561Z,12.20
2018-05-03T20:13:17.863Z,12.12
2018-05-03T20:15:47.265Z,12.00
2018-05-03T20:18:17.153Z,12.01
2018-05-03T20:20:47.835Z,12.13
2018-05-03T20:23:18.051Z,12.01
2018-05-03T20:25:47.438Z,11.91
2018-05-03T20:28:17.165Z,11.90
2018-05-03T20:30:47.858Z,11.99
2018-05-03T20:33:17.192Z,11.99
2018-05-03T20:35:47.771Z,12.12
2018-05-03T20:38:17.146Z,12.07
2018-05-03T20:40:47.670Z,12.13
2018-05-03T20:43:17.631Z,12.06
2018-05-03T20:45:47.789Z,11.87
2018-05-03T20:48:17.491Z,11.90
2018-05-03T20:50:47.388Z,11.85
2018-05-03T20:53:16.256Z,11.74
2018-05-03T20:55:46.645Z,11.75
2018-05-03T20:58:16.501Z,11.67
2018-05-03T21:00:46.249Z,11.57
2018-05-03T21:03:14.705Z,11.56
2018-05-03T21:05:43.943Z,11.47
2018-05-03T21:08:12.304Z,11.25
2018-05-03T21:10:41.342Z,11.29
2018-05-03T21:13:09.677Z,11.24
2018-05-03T21:15:38.099Z,11.33
2018-05-03T21:18:06.414Z,11.22
2018-05-03T21:20:34.768Z,11.14
2018-05-03T21:23:03.152Z,11.04
2018-05-03T21:25:31.421Z,11.07
2018-05-03T21:27:59.750Z,10.98
2018-05-03T21:30:28.089Z,11.05
2018-05-03T21:32:56.388Z,10.88
2018-05-03T21:35:24.678Z,10.93
2018-05-03T21:37:53.044Z,10.85
2018-05-03T21:40:21.325Z,10.87
2018-05-03T21:42:49.632Z,11.03
2018-05-03T21:45:17.910Z,10.94
2018-05-03T21:47:46.255Z,10.93
2018-05-03T21:50:14.572Z,10.96
2018-05-03T21:52:42.872Z,10.92
2018-05-03T21:55:11.241Z,10.99
2018-05-03T21:57:39.529Z,11.00
2018-05-03T22:00:07.800Z,11.01
2018-05-03T22:02:36.087Z,10.95
2018-05-03T22:05:04.395Z,10.93
2018-05-03T22:07:32.677Z,10.86
2018-05-03T22:10:00.959Z,10.78
2018-05-03T22:12:29.230Z,10.56
2018-05-03T22:14:57.536Z,10.57
2018-05-03T22:17:25.840Z,10.48
2018-05-03T22:19:54.200Z,10.40
2018-05-03T22:22:22.498Z,10.33
2018-05-03T22:24:50.826Z,10.27
2018-05-03T22:27:19.236Z,10.21
2018-05-03T22:29:47.539Z,10.06
2018-05-03T22:32:15.802Z,9.90
2018-05-03T22:34:44.076Z,9.89
2018-05-03T22:37:12.342Z,9.90
2018-05-03T22:39:40.620Z,9.81
2018-05-03T22:42:08.936Z,9.70
2018-05-03T22:44:37.190Z,9.74
2018-05-03T22:47:05.511Z,9.61
2018-05-03T22:49:33.803Z,9.56
2018-05-03T22:52:02.093Z,9.75
2018-05-03T22:54:30.377Z,9.82
2018-05-03T22:56:58.682Z,9.90
2018-05-03T22:59:26.981Z,9.94
2018-05-03T23:01:55.299Z,9.80
2018-05-03T23:04:23.617Z,9.76
2018-05-03T23:06:51.852Z,9.74
2018-05-03T23:09:20.193Z,9.54
2018-05-03T23:11:49.235Z,9.46
2018-05-03T23:14:17.529Z,9.51
2018-05-03T23:16:45.873Z,9.50
2018-05-03T23:19:14.163Z,9.40
2018-05-03T23:21:42.464Z,9.26
2018-05-03T23:24:10.737Z,9.24
2018-05-03T23:26:39.077Z,9.24
2018-05-03T23:29:07.405Z,9.14
2018-05-03T23:31:35.699Z,9.04
2018-05-03T23:34:04.023Z,9.01
2018-05-03T23:36:32.370Z,8.93
2018-05-03T23:39:00.734Z,8.93
2018-05-03T23:41:29.034Z,8.82
2018-05-03T23:43:57.341Z,8.77
2018-05-03T23:46:25.603Z,8.81
2018-05-03T23:48:53.961Z,8.77
2018-05-03T23:51:22.976Z,8.68
2018-05-03T23:53:51.265Z,8.66
2018-05-03T23:56:19.554Z,8.50
2018-05-03T23:58:47.884Z,8.53
